Flight Track Log - Related Links

Times and Time Zones

All times are in EDT time to prevent confusion due to time zone crossing. See the TAM3245 flight status page for this flight to view local times or setup timezone preferences in your user account.

Time Position Orientation Groundspeed Altitude Reporting Facility
EDT Latitude Longitude Course Direction KTS MPH feet Rate Location/Type
Sun 08:18:00 PM -20.6478 -47.6536 163° South  Level Estimated
Sun 08:19:00 PM -20.7581 -47.6174 163° South  Level Estimated
Sun 08:20:00 PM -20.8683 -47.5812 163° South  Level Estimated
Sun 08:21:00 PM -20.9785 -47.5449 163° South  Level Estimated
Sun 08:22:00 PM -21.0887 -47.5086 163° South  Level Estimated
Sun 08:23:00 PM -21.1990 -47.4722 163° South  Level Estimated
Sun 08:24:00 PM -21.3092 -47.4357 163° South  Level Estimated
Sun 08:25:00 PM -21.4194 -47.3992 163° South  Level Estimated
Sun 08:26:00 PM -21.5296 -47.3627 163° South  Level Estimated
Sun 08:27:00 PM -21.6397 -47.3261 163° South  Level Estimated
Sun 08:28:00 PM -21.7499 -47.2894 163° South  Level Estimated
Sun 08:29:00 PM -21.8601 -47.2527 163° South  Level Estimated
Sun 08:30:00 PM -21.9703 -47.2159 163° South  Level Estimated
Sun 08:31:00 PM -22.0804 -47.1791 163° South  Level Estimated
Sun 08:32:00 PM -22.1905 -47.1422 163° South  Level Estimated
Sun 08:33:00 PM -22.3007 -47.1052 163° South  Level Estimated
Sun 08:34:00 PM -22.4108 -47.0682 163° South  Level Estimated
Sun 08:35:00 PM -22.5209 -47.0311 163° South  Level Estimated
Sun 08:36:00 PM -22.6311 -46.9940 163° South  Level Estimated
Sun 08:37:00 PM -22.7411 -46.9568 163° South  Level Estimated
Sun 08:38:00 PM -22.8512 -46.9196 163° South  Level Estimated
Sun 08:39:00 PM -22.9613 -46.8823 163° South  Level Estimated
Sun 08:40:00 PM -23.0714 -46.8449 163° South  Level Estimated
Sun 08:41:00 PM -23.1815 -46.8074 163° South  Level Estimated
Sun 08:42:00 PM -23.2915 -46.7700 163° South  Level Estimated
Sun 08:43:00 PM -23.4016 -46.7324 163° South  Level Estimated
Sun 08:44:00 PM -23.5116 -46.6948 163° South  Level Estimated
Sun 08:45:00 PM -23.6217 -46.6571 163° South  Level Estimated
Sun 08:46:00 PM -23.6267 -46.6554 163° South  Level Estimated
Sun 08:47:00 PM -23.6267 -46.6554 114° Southeast  Level Estimated
Sun 08:48:00 PM -23.6267 -46.6554 114° Southeast  Level Estimated
Sun 08:49:00 PM -23.6267 -46.6554 114° Southeast  Level Estimated
Sun 08:50:00 PM -23.6267 -46.6554 114° Southeast  Level Estimated
Sun 08:51:00 PM -23.6267 -46.6554 114° Southeast  Level Estimated
Sun 08:52:00 PM -23.6267 -46.6554 114° Southeast  Level Estimated
Sun 08:53:00 PM -23.6267 -46.6554 114° Southeast  Level Estimated
Sun 08:54:00 PM -23.6267 -46.6554 114° Southeast  Level Estimated
Sun 08:55:00 PM -23.6267 -46.6554 114° Southeast  Level Estimated
Sun 08:56:00 PM -23.6267 -46.6554 114° Southeast  Level Estimated
Sun 08:57:00 PM -23.6267 -46.6554 114° Southeast  Level Estimated
Sun 08:58:00 PM -23.6267 -46.6554 114° Southeast  Level Estimated
Sun 08:59:00 PM -23.6267 -46.6554 114° Southeast  Level Estimated
Sun 09:00:00 PM -23.6267 -46.6554 114° Southeast  Level Estimated
Sun 09:01:00 PM -23.6267 -46.6554 114° Southeast  Level Estimated

Login

Don't have an account? Register now (free) for customized features, flight alerts, and more!